Time;durP1;ratioP1;P1;durP2;ratioP2;P2;SDS_P1;SDS_P2;PMS_P1;PMS_P2;Temp;Humidity;BMP_temperature;BMP_pressure;BME280_temperature;BME280_humidity;BME280_pressure;Samples;Min_cycle;Max_cycle;Signal;HPM_P1;HPM_P2
2021/09/02 00:01:47;;;;;;;0.90;0.90;;;;;;;;;;5024006;28;20095;-78
2021/09/02 00:04:14;;;;;;;0.80;0.80;;;;;;;;;;5026078;28;20111;-78
2021/09/02 00:06:41;;;;;;;0.80;0.80;;;;;;;;;;5041632;28;20065;-78
2021/09/02 00:09:07;;;;;;;1.00;0.90;;;;;;;;;;5041341;28;20088;-78
2021/09/02 00:11:34;;;;;;;0.90;0.90;;;;;;;;;;5026539;28;20055;-78
2021/09/02 00:14:00;;;;;;;0.90;0.90;;;;;;;;;;5027689;28;20065;-78
2021/09/02 00:16:27;;;;;;;2.67;0.90;;;;;;;;;;5032327;28;20512;-78
2021/09/02 00:18:54;;;;;;;0.95;0.80;;;;;;;;;;5042771;28;20446;-78
2021/09/02 00:21:20;;;;;;;1.02;0.90;;;;;;;;;;5030047;28;20037;-78
2021/09/02 00:23:47;;;;;;;2.05;1.00;;;;;;;;;;5028133;28;20534;-78
2021/09/02 00:26:13;;;;;;;0.80;0.80;;;;;;;;;;5044159;28;20127;-78
2021/09/02 00:28:40;;;;;;;2.47;0.90;;;;;;;;;;5031045;28;20072;-78
2021/09/02 00:31:07;;;;;;;0.82;0.82;;;;;;;;;;5026626;28;20382;-78
2021/09/02 00:33:34;;;;;;;0.95;0.75;;;;;;;;;;5031159;28;20045;-78
2021/09/02 00:36:00;;;;;;;0.80;0.80;;;;;;;;;;5027831;28;20277;-78
2021/09/02 00:38:27;;;;;;;0.80;0.80;;;;;;;;;;5017153;28;20505;-78
2021/09/02 00:40:53;;;;;;;2.67;0.88;;;;;;;;;;5030778;28;20044;-78
2021/09/02 00:43:20;;;;;;;1.65;0.90;;;;;;;;;;5028585;28;20038;-78
2021/09/02 00:45:46;;;;;;;1.75;1.50;;;;;;;;;;5031946;28;20037;-78
2021/09/02 00:48:14;;;;;;;0.80;0.80;;;;;;;;;;5061533;28;20029;-78
2021/09/02 00:50:40;;;;;;;2.47;0.98;;;;;;;;;;5044990;28;20076;-78
2021/09/02 00:53:07;;;;;;;1.05;0.90;;;;;;;;;;5030775;28;20045;-78
2021/09/02 00:55:33;;;;;;;0.98;0.80;;;;;;;;;;5028797;28;20557;-78
2021/09/02 00:58:00;;;;;;;0.75;0.75;;;;;;;;;;5034430;28;20041;-78
2021/09/02 01:00:27;;;;;;;0.90;0.90;;;;;;;;;;5025722;28;20044;-78
2021/09/02 01:02:54;;;;;;;0.82;0.82;;;;;;;;;;5028612;28;20423;-78
2021/09/02 01:05:21;;;;;;;0.90;0.90;;;;;;;;;;5062660;28;20045;-78
2021/09/02 01:07:48;;;;;;;0.90;0.90;;;;;;;;;;5057838;28;20029;-78
2021/09/02 01:10:15;;;;;;;1.00;0.80;;;;;;;;;;5031068;28;20394;-78
2021/09/02 01:12:43;;;;;;;0.80;0.80;;;;;;;;;;5025261;28;20124;-78
2021/09/02 01:15:12;;;;;;;1.65;0.80;;;;;;;;;;5028716;28;20103;-78
2021/09/02 01:17:40;;;;;;;0.80;0.80;;;;;;;;;;5029894;28;20049;-78
2021/09/02 01:20:08;;;;;;;1.13;0.70;;;;;;;;;;5028909;28;20041;-78
2021/09/02 01:22:35;;;;;;;0.80;0.80;;;;;;;;;;5028338;28;20033;-78
2021/09/02 01:25:03;;;;;;;1.33;0.80;;;;;;;;;;5027766;28;20037;-78
2021/09/02 01:27:31;;;;;;;0.70;0.70;;;;;;;;;;5028880;28;20041;-78
2021/09/02 01:29:59;;;;;;;0.80;0.80;;;;;;;;;;5030358;28;20457;-78
2021/09/02 01:32:26;;;;;;;1.52;0.80;;;;;;;;;;5027957;28;20490;-78
2021/09/02 01:34:57;;;;;;;1.45;0.75;;;;;;;;;;5032662;28;20048;-78
2021/09/02 01:37:24;;;;;;;0.77;0.77;;;;;;;;;;5030464;28;20072;-78
2021/09/02 01:39:51;;;;;;;0.80;0.80;;;;;;;;;;5028856;28;20136;-78
2021/09/02 01:42:18;;;;;;;0.73;0.73;;;;;;;;;;5029474;28;20061;-78
2021/09/02 01:44:45;;;;;;;1.00;1.00;;;;;;;;;;5027518;28;20045;-78
2021/09/02 01:47:22;;;;;;;0.80;0.80;;;;;;;;;;5028768;28;20104;-78
2021/09/02 01:49:48;;;;;;;0.90;0.90;;;;;;;;;;5027231;28;20068;-77
2021/09/02 01:52:15;;;;;;;0.93;0.93;;;;;;;;;;5028340;28;20069;-77
2021/09/02 01:54:42;;;;;;;0.80;0.80;;;;;;;;;;5027094;28;20037;-77
2021/09/02 01:57:09;;;;;;;0.93;0.93;;;;;;;;;;5028028;28;20432;-77
2021/09/02 01:59:35;;;;;;;1.73;1.00;;;;;;;;;;5028135;28;20076;-77
2021/09/02 02:02:02;;;;;;;0.90;0.90;;;;;;;;;;5025853;28;20092;-77
2021/09/02 02:04:29;;;;;;;2.53;0.93;;;;;;;;;;5028238;28;20076;-77
2021/09/02 02:06:56;;;;;;;0.90;0.90;;;;;;;;;;5028949;28;20095;-78
2021/09/02 02:09:22;;;;;;;1.38;0.88;;;;;;;;;;5028748;28;20087;-78
2021/09/02 02:11:49;;;;;;;2.83;1.00;;;;;;;;;;5025837;28;20406;-78
2021/09/02 02:14:16;;;;;;;1.90;1.00;;;;;;;;;;5035510;28;20042;-78
2021/09/02 02:16:42;;;;;;;0.90;0.90;;;;;;;;;;5027739;28;20041;-78
2021/09/02 02:19:09;;;;;;;0.80;0.80;;;;;;;;;;5026755;28;20038;-78
2021/09/02 02:21:36;;;;;;;0.90;0.90;;;;;;;;;;5028176;28;20091;-78
2021/09/02 02:24:02;;;;;;;1.00;1.00;;;;;;;;;;5035901;28;20044;-78
2021/09/02 02:26:29;;;;;;;1.17;0.90;;;;;;;;;;5027871;28;20052;-78
2021/09/02 02:28:56;;;;;;;1.08;1.00;;;;;;;;;;5026612;28;20037;-78
2021/09/02 02:31:22;;;;;;;0.90;0.90;;;;;;;;;;5026834;28;20073;-78
2021/09/02 02:33:49;;;;;;;0.95;0.95;;;;;;;;;;5058308;28;20029;-78
2021/09/02 02:36:16;;;;;;;1.00;1.00;;;;;;;;;;5026682;28;20040;-78
2021/09/02 02:38:42;;;;;;;1.00;1.00;;;;;;;;;;5028260;28;20143;-78
2021/09/02 02:41:09;;;;;;;0.90;0.90;;;;;;;;;;5056718;28;20042;-78
2021/09/02 02:43:35;;;;;;;2.15;0.90;;;;;;;;;;5028549;28;20409;-78
2021/09/02 02:46:02;;;;;;;1.02;0.90;;;;;;;;;;5033891;28;20037;-78
2021/09/02 02:48:29;;;;;;;1.45;1.02;;;;;;;;;;5025327;28;20077;-78
2021/09/02 02:50:55;;;;;;;2.28;1.15;;;;;;;;;;5027705;28;20116;-78
2021/09/02 02:53:22;;;;;;;0.95;0.95;;;;;;;;;;5026786;28;20658;-78
2021/09/02 02:55:48;;;;;;;1.08;1.08;;;;;;;;;;5023048;28;20037;-78
2021/09/02 02:58:15;;;;;;;3.08;0.90;;;;;;;;;;5024158;28;20072;-78
2021/09/02 03:00:42;;;;;;;1.40;1.40;;;;;;;;;;5026130;28;20037;-78
2021/09/02 03:03:09;;;;;;;1.35;1.05;;;;;;;;;;5023753;28;20038;-78
2021/09/02 03:05:35;;;;;;;1.08;1.00;;;;;;;;;;5024944;28;20029;-78
2021/09/02 03:08:03;;;;;;;0.90;0.90;;;;;;;;;;5022074;28;20115;-78
2021/09/02 03:10:30;;;;;;;1.42;1.00;;;;;;;;;;5051745;28;20099;-78
2021/09/02 03:12:57;;;;;;;1.10;1.00;;;;;;;;;;5057824;28;20074;-77
2021/09/02 03:15:24;;;;;;;1.00;1.00;;;;;;;;;;5024019;28;20129;-77
2021/09/02 03:17:50;;;;;;;1.30;0.90;;;;;;;;;;5022083;28;20087;-77
2021/09/02 03:20:17;;;;;;;0.90;0.90;;;;;;;;;;5022935;28;20033;-77
2021/09/02 03:22:44;;;;;;;0.88;0.88;;;;;;;;;;5027016;28;20038;-77
2021/09/02 03:25:10;;;;;;;4.68;1.00;;;;;;;;;;5042400;28;20091;-77
2021/09/02 03:27:37;;;;;;;0.90;0.90;;;;;;;;;;5037651;28;20041;-77
2021/09/02 03:30:04;;;;;;;0.82;0.82;;;;;;;;;;5025953;28;20038;-77
2021/09/02 03:32:31;;;;;;;1.80;0.90;;;;;;;;;;5020228;28;20072;-77
2021/09/02 03:34:58;;;;;;;0.90;0.90;;;;;;;;;;5058893;28;20040;-77
2021/09/02 03:37:25;;;;;;;1.00;1.00;;;;;;;;;;5025400;28;21390;-77
2021/09/02 03:39:52;;;;;;;1.27;0.93;;;;;;;;;;5029731;28;20099;-77
2021/09/02 03:42:18;;;;;;;0.90;0.90;;;;;;;;;;5040353;28;20060;-77
2021/09/02 03:44:45;;;;;;;1.65;0.85;;;;;;;;;;5025078;28;20379;-77
2021/09/02 03:47:12;;;;;;;1.15;1.05;;;;;;;;;;5031664;28;20439;-77
2021/09/02 03:49:38;;;;;;;0.85;0.85;;;;;;;;;;5035232;28;20049;-77
2021/09/02 03:52:05;;;;;;;1.38;0.90;;;;;;;;;;5030918;28;20034;-77
2021/09/02 03:54:32;;;;;;;1.10;1.10;;;;;;;;;;5030585;28;20125;-77
2021/09/02 03:56:58;;;;;;;3.20;0.80;;;;;;;;;;5031185;28;20030;-77
2021/09/02 03:59:25;;;;;;;0.90;0.90;;;;;;;;;;5031544;28;20045;-77
2021/09/02 04:01:52;;;;;;;0.90;0.90;;;;;;;;;;5028820;28;20465;-77
2021/09/02 04:04:19;;;;;;;1.00;1.00;;;;;;;;;;5031640;28;20049;-77
2021/09/02 04:06:45;;;;;;;1.00;1.00;;;;;;;;;;5029179;28;20535;-77
2021/09/02 04:09:12;;;;;;;0.90;0.90;;;;;;;;;;5029653;28;20056;-78
2021/09/02 04:11:38;;;;;;;0.80;0.80;;;;;;;;;;5029496;28;20037;-78
2021/09/02 04:14:05;;;;;;;1.00;1.00;;;;;;;;;;5030456;28;20034;-78
2021/09/02 04:16:32;;;;;;;0.90;0.90;;;;;;;;;;5032020;28;20038;-78
2021/09/02 04:18:58;;;;;;;0.90;0.90;;;;;;;;;;5013349;28;20033;-78
2021/09/02 04:21:26;;;;;;;1.10;1.10;;;;;;;;;;5012907;28;20052;-77
2021/09/02 04:23:52;;;;;;;1.00;1.00;;;;;;;;;;5032931;28;20056;-77
2021/09/02 04:26:19;;;;;;;0.90;0.90;;;;;;;;;;5029683;28;20045;-77
2021/09/02 04:28:46;;;;;;;1.20;1.15;;;;;;;;;;5029295;28;20041;-77
2021/09/02 04:31:13;;;;;;;1.95;1.17;;;;;;;;;;5028379;28;20041;-77
2021/09/02 04:33:39;;;;;;;1.33;1.33;;;;;;;;;;5029430;28;20529;-77
2021/09/02 04:36:06;;;;;;;2.58;1.00;;;;;;;;;;5030178;28;20064;-77
2021/09/02 04:38:32;;;;;;;1.00;1.00;;;;;;;;;;5027410;28;20714;-77
2021/09/02 04:40:59;;;;;;;1.23;1.20;;;;;;;;;;5045713;28;20116;-77
2021/09/02 04:43:26;;;;;;;1.50;0.90;;;;;;;;;;5062304;28;20037;-77
2021/09/02 04:45:52;;;;;;;1.10;1.10;;;;;;;;;;5028087;28;20072;-77
2021/09/02 04:48:20;;;;;;;1.45;1.00;;;;;;;;;;5036650;28;20402;-78
2021/09/02 04:50:48;;;;;;;1.17;0.90;;;;;;;;;;5029476;28;20076;-78
2021/09/02 04:53:15;;;;;;;1.38;1.38;;;;;;;;;;5030301;28;20059;-78
2021/09/02 04:55:41;;;;;;;1.20;1.10;;;;;;;;;;5045207;28;20045;-78
2021/09/02 04:58:09;;;;;;;2.67;1.25;;;;;;;;;;5028146;28;20038;-78
2021/09/02 05:00:36;;;;;;;1.20;0.93;;;;;;;;;;5029347;28;20099;-78
2021/09/02 05:03:03;;;;;;;1.85;0.90;;;;;;;;;;5029248;28;20037;-78
2021/09/02 05:05:30;;;;;;;1.10;1.00;;;;;;;;;;5028408;28;20045;-78
2021/09/02 05:07:57;;;;;;;1.23;1.00;;;;;;;;;;5028915;28;20069;-77
2021/09/02 05:10:24;;;;;;;0.90;0.90;;;;;;;;;;5029222;28;20430;-77
2021/09/02 05:12:51;;;;;;;1.10;1.00;;;;;;;;;;5044263;28;20504;-77
2021/09/02 05:15:17;;;;;;;1.00;1.00;;;;;;;;;;5030734;28;20096;-77
2021/09/02 05:17:45;;;;;;;1.20;1.05;;;;;;;;;;5028710;28;20289;-77
2021/09/02 05:20:12;;;;;;;1.45;1.10;;;;;;;;;;5024817;28;20121;-77
2021/09/02 05:22:39;;;;;;;0.90;0.90;;;;;;;;;;5020199;28;20041;-77
2021/09/02 05:25:06;;;;;;;1.95;1.10;;;;;;;;;;5030172;28;20180;-77
2021/09/02 05:27:33;;;;;;;5.15;1.00;;;;;;;;;;5027685;28;20464;-77
2021/09/02 05:30:04;;;;;;;1.10;1.00;;;;;;;;;;5027675;28;20495;-77
2021/09/02 05:32:30;;;;;;;0.90;0.90;;;;;;;;;;5028296;28;20045;-77
2021/09/02 05:34:57;;;;;;;1.67;1.10;;;;;;;;;;5021306;28;20037;-77
2021/09/02 05:37:24;;;;;;;0.90;0.90;;;;;;;;;;5036230;28;20569;-77
2021/09/02 05:39:50;;;;;;;0.93;0.93;;;;;;;;;;5023971;28;20126;-77
2021/09/02 05:42:17;;;;;;;0.82;0.82;;;;;;;;;;5028485;28;20034;-77
2021/09/02 05:44:44;;;;;;;1.00;1.00;;;;;;;;;;5030103;28;20535;-77
2021/09/02 05:47:11;;;;;;;1.85;0.90;;;;;;;;;;5023733;28;20065;-77
2021/09/02 05:49:37;;;;;;;1.42;0.90;;;;;;;;;;5023845;28;20038;-77
2021/09/02 05:52:04;;;;;;;0.93;0.93;;;;;;;;;;5027737;28;20037;-77
2021/09/02 05:54:31;;;;;;;1.00;1.00;;;;;;;;;;5029187;28;20103;-77
2021/09/02 05:56:57;;;;;;;2.45;1.08;;;;;;;;;;5027482;28;20064;-77
2021/09/02 05:59:24;;;;;;;8.77;1.10;;;;;;;;;;5027310;28;20053;-77
2021/09/02 06:01:50;;;;;;;2.70;1.20;;;;;;;;;;5030621;28;20075;-77
2021/09/02 06:04:17;;;;;;;1.00;1.00;;;;;;;;;;5027650;28;20041;-77
2021/09/02 06:06:44;;;;;;;1.00;1.00;;;;;;;;;;5028698;28;20402;-77
2021/09/02 06:09:11;;;;;;;2.47;1.00;;;;;;;;;;5029617;28;20042;-78
2021/09/02 06:11:38;;;;;;;0.88;0.80;;;;;;;;;;5029306;28;20525;-78
2021/09/02 06:14:05;;;;;;;0.80;0.80;;;;;;;;;;5030181;28;20033;-78
2021/09/02 06:16:31;;;;;;;7.20;0.90;;;;;;;;;;5026886;28;20069;-78
2021/09/02 06:18:58;;;;;;;0.90;0.90;;;;;;;;;;5027168;28;20041;-78
2021/09/02 06:21:25;;;;;;;2.15;1.00;;;;;;;;;;5028665;28;20037;-78
2021/09/02 06:23:51;;;;;;;4.97;0.88;;;;;;;;;;5028181;28;20050;-78
2021/09/02 06:26:18;;;;;;;6.25;0.90;;;;;;;;;;5030369;28;20448;-78
2021/09/02 06:28:45;;;;;;;0.80;0.80;;;;;;;;;;5024481;28;20088;-78
2021/09/02 06:31:11;;;;;;;0.80;0.80;;;;;;;;;;5020036;28;20033;-78
2021/09/02 06:33:39;;;;;;;0.75;0.75;;;;;;;;;;5028974;28;20037;-78
2021/09/02 06:36:06;;;;;;;3.28;0.70;;;;;;;;;;5028874;28;20478;-78
2021/09/02 06:38:33;;;;;;;0.60;0.60;;;;;;;;;;5061805;28;20049;-78
2021/09/02 06:40:59;;;;;;;0.80;0.80;;;;;;;;;;5012277;28;20041;-78
2021/09/02 06:43:26;;;;;;;0.80;0.80;;;;;;;;;;5028332;28;20486;-78
2021/09/02 06:45:53;;;;;;;2.33;0.77;;;;;;;;;;5027285;28;20045;-78
2021/09/02 06:48:19;;;;;;;2.78;1.35;;;;;;;;;;5040280;28;20041;-78
2021/09/02 06:50:46;;;;;;;1.42;0.70;;;;;;;;;;5028400;28;20045;-78
2021/09/02 06:53:13;;;;;;;0.80;0.80;;;;;;;;;;5027896;28;20121;-78
2021/09/02 06:55:39;;;;;;;1.85;0.95;;;;;;;;;;5027963;28;20037;-78
2021/09/02 06:58:06;;;;;;;0.80;0.80;;;;;;;;;;5060894;28;20052;-78
2021/09/02 07:00:32;;;;;;;0.93;0.70;;;;;;;;;;5028580;28;20464;-78
2021/09/02 07:02:59;;;;;;;1.73;0.75;;;;;;;;;;5025719;28;20131;-78
2021/09/02 07:05:26;;;;;;;1.50;0.80;;;;;;;;;;5027958;28;20469;-78
2021/09/02 07:07:54;;;;;;;2.70;0.70;;;;;;;;;;5028680;28;20037;-78
2021/09/02 07:10:35;;;;;;;0.70;0.70;;;;;;;;;;5027690;28;20064;-78
2021/09/02 07:13:01;;;;;;;1.33;0.70;;;;;;;;;;5028479;28;20052;-78
2021/09/02 07:15:28;;;;;;;1.20;1.13;;;;;;;;;;5026904;28;20068;-78
2021/09/02 07:17:55;;;;;;;2.47;1.00;;;;;;;;;;5025632;28;20038;-78
2021/09/02 07:20:21;;;;;;;2.70;0.70;;;;;;;;;;5026684;28;20041;-78
2021/09/02 07:22:48;;;;;;;4.53;0.70;;;;;;;;;;5016053;28;20092;-78
2021/09/02 07:25:14;;;;;;;0.82;0.70;;;;;;;;;;5027000;28;20040;-78
2021/09/02 07:27:41;;;;;;;3.50;0.80;;;;;;;;;;5048333;28;20344;-78
2021/09/02 07:30:08;;;;;;;2.05;0.80;;;;;;;;;;5033720;28;20034;-78
2021/09/02 07:32:35;;;;;;;2.50;0.80;;;;;;;;;;5031114;28;20025;-78
2021/09/02 07:35:02;;;;;;;3.45;0.80;;;;;;;;;;5064336;28;20081;-78
2021/09/02 07:37:29;;;;;;;7.03;0.90;;;;;;;;;;5063095;28;20036;-78
2021/09/02 07:39:56;;;;;;;0.90;0.70;;;;;;;;;;5030630;28;20057;-78
2021/09/02 07:42:22;;;;;;;2.58;0.80;;;;;;;;;;5033336;28;20037;-78
2021/09/02 07:44:49;;;;;;;5.63;0.90;;;;;;;;;;5031741;28;20038;-78
2021/09/02 07:47:16;;;;;;;5.03;1.23;;;;;;;;;;5030799;28;20048;-78
2021/09/02 07:49:42;;;;;;;2.25;0.70;;;;;;;;;;5029906;28;20069;-78
2021/09/02 07:52:09;;;;;;;1.95;0.70;;;;;;;;;;5021779;28;20531;-78
2021/09/02 07:54:36;;;;;;;1.73;0.60;;;;;;;;;;5032914;28;20049;-78
2021/09/02 07:57:03;;;;;;;1.60;0.60;;;;;;;;;;5013907;28;20095;-78
2021/09/02 07:59:30;;;;;;;2.03;0.60;;;;;;;;;;5030440;28;20437;-78
2021/09/02 08:01:56;;;;;;;0.95;0.65;;;;;;;;;;5031204;28;20563;-78
2021/09/02 08:04:23;;;;;;;0.60;0.60;;;;;;;;;;5031535;28;20061;-78
2021/09/02 08:06:50;;;;;;;1.95;0.70;;;;;;;;;;5031189;28;20042;-78
2021/09/02 08:09:16;;;;;;;0.95;0.70;;;;;;;;;;5028490;28;20472;-78
2021/09/02 08:11:43;;;;;;;3.28;1.40;;;;;;;;;;5030438;28;20038;-78
2021/09/02 08:14:10;;;;;;;0.82;0.70;;;;;;;;;;5032514;28;20367;-78
2021/09/02 08:16:36;;;;;;;1.15;0.65;;;;;;;;;;5029252;28;20041;-78
2021/09/02 08:19:04;;;;;;;1.58;0.70;;;;;;;;;;5030328;28;20091;-78
2021/09/02 08:21:31;;;;;;;0.98;0.70;;;;;;;;;;5028777;28;20045;-78
2021/09/02 08:23:58;;;;;;;0.60;0.60;;;;;;;;;;5029950;28;20141;-78
2021/09/02 08:26:26;;;;;;;1.85;0.60;;;;;;;;;;5033033;28;20053;-78
2021/09/02 08:28:53;;;;;;;1.65;0.60;;;;;;;;;;5030988;28;20042;-78
2021/09/02 08:31:20;;;;;;;3.17;0.77;;;;;;;;;;5029925;28;20029;-78
2021/09/02 08:33:47;;;;;;;1.08;0.60;;;;;;;;;;5030157;28;20029;-78
2021/09/02 08:36:14;;;;;;;0.60;0.60;;;;;;;;;;5013729;28;20540;-78
2021/09/02 08:38:46;;;;;;;0.63;0.63;;;;;;;;;;5032521;28;20494;-78
2021/09/02 08:41:14;;;;;;;1.08;0.60;;;;;;;;;;5030590;28;20045;-78
2021/09/02 08:43:41;;;;;;;0.95;0.60;;;;;;;;;;5031644;28;20095;-78
2021/09/02 08:46:28;;;;;;;0.70;0.60;;;;;;;;;;5057271;28;20057;-78
2021/09/02 08:48:59;;;;;;;0.75;0.60;;;;;;;;;;5030727;28;20087;-78
2021/09/02 08:51:25;;;;;;;0.55;0.55;;;;;;;;;;5030947;28;20050;-78
2021/09/02 08:53:53;;;;;;;1.40;0.60;;;;;;;;;;5030641;28;20057;-78
2021/09/02 08:56:20;;;;;;;0.60;0.60;;;;;;;;;;5028920;28;20534;-78
2021/09/02 08:58:47;;;;;;;0.68;0.60;;;;;;;;;;5031736;28;20095;-78
2021/09/02 09:01:13;;;;;;;0.77;0.60;;;;;;;;;;5029240;28;20037;-78
2021/09/02 09:03:46;;;;;;;0.60;0.60;;;;;;;;;;5062282;28;20056;-78
2021/09/02 09:06:23;;;;;;;1.92;0.90;;;;;;;;;;5031315;28;20041;-78
2021/09/02 09:08:50;;;;;;;0.57;0.57;;;;;;;;;;5028627;28;20037;-78
2021/09/02 09:11:25;;;;;;;4.93;0.65;;;;;;;;;;5031348;28;20072;-78
2021/09/02 09:14:10;;;;;;;0.60;0.60;;;;;;;;;;5028641;28;20048;-78
2021/09/02 09:16:44;;;;;;;0.50;0.50;;;;;;;;;;5028794;28;20034;-78
2021/09/02 09:19:12;;;;;;;0.50;0.50;;;;;;;;;;5029566;28;20421;-78
2021/09/02 09:21:56;;;;;;;0.60;0.60;;;;;;;;;;5029209;28;20314;-78
2021/09/02 09:24:22;;;;;;;1.27;0.57;;;;;;;;;;5016579;28;20084;-78
2021/09/02 09:26:49;;;;;;;0.52;0.52;;;;;;;;;;5030634;28;20041;-78
2021/09/02 09:29:17;;;;;;;0.60;0.60;;;;;;;;;;5029175;28;20034;-78
2021/09/02 09:31:44;;;;;;;1.48;0.60;;;;;;;;;;5030352;28;20036;-78
2021/09/02 09:34:11;;;;;;;0.50;0.50;;;;;;;;;;5059350;28;20103;-78
2021/09/02 09:36:39;;;;;;;0.52;0.52;;;;;;;;;;5019340;28;20037;-78
2021/09/02 09:39:12;;;;;;;0.70;0.60;;;;;;;;;;5031646;28;20457;-78
2021/09/02 09:41:43;;;;;;;4.43;0.50;;;;;;;;;;5060334;28;20086;-78
2021/09/02 09:44:20;;;;;;;0.55;0.55;;;;;;;;;;5013023;28;20460;-78
2021/09/02 09:47:07;;;;;;;8.10;1.48;;;;;;;;;;5032965;28;20068;-79
2021/09/02 09:49:53;;;;;;;0.50;0.50;;;;;;;;;;5027440;28;20509;-79
2021/09/02 09:52:24;;;;;;;1.02;0.50;;;;;;;;;;5021519;28;20045;-79
2021/09/02 09:54:51;;;;;;;0.50;0.50;;;;;;;;;;5031539;28;20056;-79
2021/09/02 09:57:17;;;;;;;0.50;0.50;;;;;;;;;;5028646;28;20497;-79
2021/09/02 09:59:45;;;;;;;0.50;0.50;;;;;;;;;;5029604;28;20076;-79
2021/09/02 10:02:11;;;;;;;0.50;0.50;;;;;;;;;;5029302;28;20049;-79
2021/09/02 10:04:41;;;;;;;0.40;0.40;;;;;;;;;;5030944;28;20098;-79
2021/09/02 10:07:09;;;;;;;0.50;0.50;;;;;;;;;;5026929;28;20069;-78
2021/09/02 10:09:35;;;;;;;0.47;0.47;;;;;;;;;;5027664;28;20042;-78
2021/09/02 10:12:02;;;;;;;1.33;0.50;;;;;;;;;;5030482;28;20065;-78
2021/09/02 10:14:29;;;;;;;0.40;0.40;;;;;;;;;;5029156;28;20505;-78
2021/09/02 10:16:57;;;;;;;0.50;0.50;;;;;;;;;;5040845;28;20026;-78
2021/09/02 10:19:27;;;;;;;0.50;0.50;;;;;;;;;;5028354;28;20072;-78
2021/09/02 10:21:56;;;;;;;2.60;0.40;;;;;;;;;;5028646;28;20037;-78
2021/09/02 10:24:29;;;;;;;0.43;0.40;;;;;;;;;;5028281;28;20069;-78
2021/09/02 10:26:56;;;;;;;0.52;0.52;;;;;;;;;;5043023;28;20564;-78
2021/09/02 10:29:33;;;;;;;0.40;0.40;;;;;;;;;;5037328;28;20038;-78
2021/09/02 10:32:19;;;;;;;0.50;0.50;;;;;;;;;;5024371;28;20042;-78
2021/09/02 10:34:45;;;;;;;0.40;0.40;;;;;;;;;;5027252;28;20417;-78
2021/09/02 10:37:32;;;;;;;0.40;0.40;;;;;;;;;;5028313;28;20041;-78
2021/09/02 10:39:59;;;;;;;0.40;0.40;;;;;;;;;;5045835;28;20532;-78
2021/09/02 10:42:46;;;;;;;0.40;0.40;;;;;;;;;;5026423;28;20037;-78
2021/09/02 10:45:25;;;;;;;1.35;0.40;;;;;;;;;;5022983;28;20041;-78
2021/09/02 10:47:52;;;;;;;0.40;0.40;;;;;;;;;;5027522;28;20049;-78
2021/09/02 10:50:23;;;;;;;0.40;0.40;;;;;;;;;;5036183;28;20048;-78
2021/09/02 10:52:50;;;;;;;0.50;0.50;;;;;;;;;;5028833;28;20038;-78
2021/09/02 10:55:33;;;;;;;0.45;0.45;;;;;;;;;;5027624;28;20132;-78
2021/09/02 10:58:03;;;;;;;0.50;0.50;;;;;;;;;;5027580;28;20041;-78
2021/09/02 11:00:34;;;;;;;0.65;0.50;;;;;;;;;;5028271;28;20037;-78
2021/09/02 11:03:13;;;;;;;0.40;0.40;;;;;;;;;;5025461;28;20036;-79
2021/09/02 11:05:41;;;;;;;0.40;0.40;;;;;;;;;;5027862;28;20100;-79
2021/09/02 11:08:08;;;;;;;0.40;0.40;;;;;;;;;;5030944;28;20041;-79
2021/09/02 11:10:35;;;;;;;0.45;0.45;;;;;;;;;;5057918;28;20423;-79
2021/09/02 11:13:03;;;;;;;0.75;0.40;;;;;;;;;;5029566;28;20076;-79
2021/09/02 11:15:30;;;;;;;0.40;0.40;;;;;;;;;;5027090;28;20034;-79
2021/09/02 11:18:04;;;;;;;0.40;0.40;;;;;;;;;;5027955;28;20549;-79
2021/09/02 11:20:42;;;;;;;0.40;0.40;;;;;;;;;;5049859;28;20049;-79
2021/09/02 11:23:10;;;;;;;0.75;0.40;;;;;;;;;;5055426;28;20108;-79
2021/09/02 11:25:57;;;;;;;0.40;0.40;;;;;;;;;;5026014;28;20108;-79
2021/09/02 11:28:23;;;;;;;13.40;0.93;;;;;;;;;;5028507;28;20517;-79
2021/09/02 11:30:51;;;;;;;0.40;0.40;;;;;;;;;;5028176;28;20152;-79
2021/09/02 11:33:18;;;;;;;0.40;0.40;;;;;;;;;;5029712;28;20091;-79
2021/09/02 11:35:57;;;;;;;0.30;0.30;;;;;;;;;;5027865;28;20398;-79
2021/09/02 11:38:24;;;;;;;0.30;0.30;;;;;;;;;;5058465;28;20045;-79
2021/09/02 11:40:51;;;;;;;0.40;0.40;;;;;;;;;;5029358;28;20046;-79
2021/09/02 11:43:18;;;;;;;0.40;0.40;;;;;;;;;;5025657;28;20468;-79
2021/09/02 11:45:51;;;;;;;0.40;0.40;;;;;;;;;;5027000;28;20107;-79
2021/09/02 11:48:19;;;;;;;1.05;0.40;;;;;;;;;;5045773;28;20042;-79
2021/09/02 11:50:54;;;;;;;0.45;0.40;;;;;;;;;;5027633;28;20517;-79
2021/09/02 11:53:28;;;;;;;1.58;0.63;;;;;;;;;;5029942;28;20164;-79
2021/09/02 11:55:55;;;;;;;0.30;0.30;;;;;;;;;;5025957;28;20406;-79
2021/09/02 11:58:26;;;;;;;0.35;0.35;;;;;;;;;;5029232;28;20281;-79
2021/09/02 12:01:00;;;;;;;0.40;0.40;;;;;;;;;;5030608;28;20046;-79
2021/09/02 12:03:26;;;;;;;1.08;0.40;;;;;;;;;;5028581;28;20029;-79
2021/09/02 12:05:56;;;;;;;0.40;0.40;;;;;;;;;;5029788;28;20041;-79
2021/09/02 12:08:23;;;;;;;0.65;0.40;;;;;;;;;;5028590;28;20076;-79
2021/09/02 12:10:50;;;;;;;0.40;0.40;;;;;;;;;;5054796;28;20030;-79
2021/09/02 12:13:24;;;;;;;0.60;0.40;;;;;;;;;;5033858;28;20103;-79
2021/09/02 12:16:22;;;;;;;0.40;0.40;;;;;;;;;;5029518;28;20076;-79
2021/09/02 12:18:56;;;;;;;0.30;0.30;;;;;;;;;;4989265;28;20061;-79
2021/09/02 12:21:25;;;;;;;0.40;0.40;;;;;;;;;;4993044;28;20061;-79
2021/09/02 12:23:52;;;;;;;0.75;0.40;;;;;;;;;;4988837;28;20117;-79
2021/09/02 12:26:23;;;;;;;0.40;0.40;;;;;;;;;;4991025;28;20503;-79
2021/09/02 12:28:52;;;;;;;0.40;0.40;;;;;;;;;;4976010;28;20066;-79
2021/09/02 12:31:19;;;;;;;1.75;0.40;;;;;;;;;;4988950;28;20043;-79
2021/09/02 12:33:57;;;;;;;0.30;0.30;;;;;;;;;;4991286;28;20069;-79
2021/09/02 12:36:24;;;;;;;0.40;0.40;;;;;;;;;;4973938;28;20491;-79
2021/09/02 12:38:51;;;;;;;0.40;0.40;;;;;;;;;;4990340;28;20126;-79
2021/09/02 12:41:20;;;;;;;0.40;0.40;;;;;;;;;;4990704;28;20046;-79
2021/09/02 12:44:00;;;;;;;0.40;0.40;;;;;;;;;;4989675;28;20053;-79
2021/09/02 12:46:27;;;;;;;0.38;0.38;;;;;;;;;;4990130;28;20042;-79
2021/09/02 12:49:09;;;;;;;0.40;0.40;;;;;;;;;;4974123;28;20046;-79
2021/09/02 12:51:36;;;;;;;0.32;0.32;;;;;;;;;;4983573;28;20049;-79
2021/09/02 12:54:03;;;;;;;0.30;0.30;;;;;;;;;;4959988;28;20101;-79
2021/09/02 12:56:34;;;;;;;0.50;0.50;;;;;;;;;;5032731;28;20052;-79
2021/09/02 12:59:01;;;;;;;0.50;0.43;;;;;;;;;;5032060;28;20041;-79
2021/09/02 13:01:27;;;;;;;0.40;0.40;;;;;;;;;;5032572;28;20133;-79
2021/09/02 13:03:57;;;;;;;1.33;0.40;;;;;;;;;;5029097;28;20033;-79
2021/09/02 13:06:24;;;;;;;0.40;0.40;;;;;;;;;;5030697;28;20069;-79
2021/09/02 13:08:50;;;;;;;0.40;0.40;;;;;;;;;;5033169;28;20033;-79
2021/09/02 13:11:17;;;;;;;0.40;0.40;;;;;;;;;;5030313;28;20107;-79
2021/09/02 13:13:43;;;;;;;0.35;0.35;;;;;;;;;;5030536;28;20099;-79
2021/09/02 13:16:10;;;;;;;0.80;0.40;;;;;;;;;;5029721;28;20088;-79
2021/09/02 13:18:37;;;;;;;1.23;0.40;;;;;;;;;;5013029;28;20033;-79
2021/09/02 13:21:03;;;;;;;0.40;0.40;;;;;;;;;;5032406;28;20045;-79
2021/09/02 13:23:30;;;;;;;0.40;0.40;;;;;;;;;;5030241;28;20465;-79
2021/09/02 13:25:56;;;;;;;0.40;0.40;;;;;;;;;;5016441;28;20042;-79
2021/09/02 13:28:23;;;;;;;0.40;0.40;;;;;;;;;;5029202;28;20159;-79
2021/09/02 13:30:50;;;;;;;0.63;0.43;;;;;;;;;;5013198;28;20113;-79
2021/09/02 13:33:16;;;;;;;0.47;0.32;;;;;;;;;;5031991;28;20497;-79
2021/09/02 13:35:43;;;;;;;0.40;0.40;;;;;;;;;;5027198;28;20072;-79
2021/09/02 13:38:10;;;;;;;1.30;0.40;;;;;;;;;;5032675;28;20367;-79
2021/09/02 13:40:36;;;;;;;2.42;0.40;;;;;;;;;;5029685;28;20037;-79
2021/09/02 13:43:03;;;;;;;0.40;0.40;;;;;;;;;;5031862;28;20390;-79
2021/09/02 13:45:32;;;;;;;0.40;0.40;;;;;;;;;;5031699;28;20204;-79
2021/09/02 13:47:59;;;;;;;0.40;0.40;;;;;;;;;;5014124;28;20050;-79
2021/09/02 13:50:25;;;;;;;0.40;0.40;;;;;;;;;;5030569;28;20033;-79
2021/09/02 13:52:52;;;;;;;0.40;0.40;;;;;;;;;;5030075;28;20033;-79
2021/09/02 13:55:19;;;;;;;0.30;0.30;;;;;;;;;;5045648;28;20030;-79
2021/09/02 13:57:45;;;;;;;0.30;0.30;;;;;;;;;;5031119;28;20404;-79
2021/09/02 14:00:13;;;;;;;0.30;0.30;;;;;;;;;;5030115;28;20049;-79
2021/09/02 14:02:40;;;;;;;0.40;0.40;;;;;;;;;;5011785;28;20069;-79
2021/09/02 14:05:07;;;;;;;0.40;0.40;;;;;;;;;;5061779;28;20049;-79
2021/09/02 14:07:34;;;;;;;0.40;0.40;;;;;;;;;;5028283;28;21346;-79
2021/09/02 14:10:01;;;;;;;0.40;0.40;;;;;;;;;;5031029;28;20045;-79
2021/09/02 14:12:28;;;;;;;0.40;0.40;;;;;;;;;;5029060;28;20524;-79
2021/09/02 14:14:55;;;;;;;0.50;0.50;;;;;;;;;;5030571;28;20042;-79
2021/09/02 14:17:21;;;;;;;0.52;0.40;;;;;;;;;;5031955;28;20486;-79
2021/09/02 14:19:48;;;;;;;1.17;0.50;;;;;;;;;;5027460;28;21037;-79
2021/09/02 14:22:15;;;;;;;0.50;0.50;;;;;;;;;;5029528;28;20445;-79
2021/09/02 14:24:41;;;;;;;0.40;0.40;;;;;;;;;;5029699;28;20065;-79
2021/09/02 14:27:08;;;;;;;0.40;0.40;;;;;;;;;;5028486;28;20069;-79
2021/09/02 14:29:34;;;;;;;0.40;0.40;;;;;;;;;;5028773;28;20037;-79
2021/09/02 14:32:01;;;;;;;1.05;0.40;;;;;;;;;;5029826;28;20038;-79
2021/09/02 14:34:28;;;;;;;0.40;0.40;;;;;;;;;;5031150;28;20056;-79
2021/09/02 14:36:54;;;;;;;1.05;0.38;;;;;;;;;;5043605;28;20037;-79
2021/09/02 14:39:21;;;;;;;0.40;0.40;;;;;;;;;;5017433;28;20128;-79
2021/09/02 14:41:47;;;;;;;1.40;0.40;;;;;;;;;;5030851;28;20038;-79
2021/09/02 14:44:14;;;;;;;0.50;0.50;;;;;;;;;;5043115;28;20406;-79
2021/09/02 14:46:42;;;;;;;0.55;0.40;;;;;;;;;;5029925;28;20046;-79
2021/09/02 14:49:12;;;;;;;0.40;0.40;;;;;;;;;;5025966;28;20041;-79